sensor_id;sensor_type;location;lat;lon;timestamp;temperature;humidity
41628;DHT22;27321;50.816;6.054;2022-11-15T00:02:33;12.30;82.80
41628;DHT22;27321;50.816;6.054;2022-11-15T00:05:53;12.40;82.60
41628;DHT22;27321;50.816;6.054;2022-11-15T00:09:12;12.40;82.50
41628;DHT22;27321;50.816;6.054;2022-11-15T00:12:32;12.40;82.60
41628;DHT22;27321;50.816;6.054;2022-11-15T00:15:52;12.50;82.50
41628;DHT22;27321;50.816;6.054;2022-11-15T00:19:11;12.50;82.50
41628;DHT22;27321;50.816;6.054;2022-11-15T00:22:32;12.40;82.50
41628;DHT22;27321;50.816;6.054;2022-11-15T00:25:57;12.40;82.40
41628;DHT22;27321;50.816;6.054;2022-11-15T00:29:17;12.50;82.50
41628;DHT22;27321;50.816;6.054;2022-11-15T00:32:36;12.50;82.40
41628;DHT22;27321;50.816;6.054;2022-11-15T00:36:01;12.50;82.40
41628;DHT22;27321;50.816;6.054;2022-11-15T00:39:23;12.50;82.20
41628;DHT22;27321;50.816;6.054;2022-11-15T01:07:35;12.50;81.90
41628;DHT22;27321;50.816;6.054;2022-11-15T01:11:00;12.40;81.70
41628;DHT22;27321;50.816;6.054;2022-11-15T01:14:24;12.40;81.90
41628;DHT22;27321;50.816;6.054;2022-11-15T01:17:44;12.40;81.80
41628;DHT22;27321;50.816;6.054;2022-11-15T01:21:09;12.40;81.90
41628;DHT22;27321;50.816;6.054;2022-11-15T01:24:29;12.40;81.90
41628;DHT22;27321;50.816;6.054;2022-11-15T01:27:49;12.40;81.90
41628;DHT22;27321;50.816;6.054;2022-11-15T01:31:12;12.50;81.90
41628;DHT22;27321;50.816;6.054;2022-11-15T01:34:34;12.50;81.70
41628;DHT22;27321;50.816;6.054;2022-11-15T01:37:54;12.50;81.70
41628;DHT22;27321;50.816;6.054;2022-11-15T01:41:23;12.50;81.50
41628;DHT22;27321;50.816;6.054;2022-11-15T01:44:47;12.50;81.40
41628;DHT22;27321;50.816;6.054;2022-11-15T01:48:08;12.40;81.20
41628;DHT22;27321;50.816;6.054;2022-11-15T01:51:31;12.50;81.30
41628;DHT22;27321;50.816;6.054;2022-11-15T01:55:01;12.40;81.30
41628;DHT22;27321;50.816;6.054;2022-11-15T01:58:27;12.40;81.30
41628;DHT22;27321;50.816;6.054;2022-11-15T02:01:47;12.40;81.30
41628;DHT22;27321;50.816;6.054;2022-11-15T02:05:07;12.30;81.30
41628;DHT22;27321;50.816;6.054;2022-11-15T02:08:28;12.30;81.40
41628;DHT22;27321;50.816;6.054;2022-11-15T02:11:48;12.40;81.20
41628;DHT22;27321;50.816;6.054;2022-11-15T02:18:45;12.40;81.30
41628;DHT22;27321;50.816;6.054;2022-11-15T02:30:33;12.50;81.20
41628;DHT22;27321;50.816;6.054;2022-11-15T02:34:25;12.50;81.20
41628;DHT22;27321;50.816;6.054;2022-11-15T02:37:58;12.50;81.10
41628;DHT22;27321;50.816;6.054;2022-11-15T02:45:02;12.60;81.20
41628;DHT22;27321;50.816;6.054;2022-11-15T02:48:24;12.60;81.20
41628;DHT22;27321;50.816;6.054;2022-11-15T02:51:46;12.60;81.20
41628;DHT22;27321;50.816;6.054;2022-11-15T02:59:20;12.60;81.70
41628;DHT22;27321;50.816;6.054;2022-11-15T03:17:37;12.60;82.70
41628;DHT22;27321;50.816;6.054;2022-11-15T03:21:03;12.60;82.70
41628;DHT22;27321;50.816;6.054;2022-11-15T03:24:25;12.60;82.80
41628;DHT22;27321;50.816;6.054;2022-11-15T03:27:50;12.60;82.80
41628;DHT22;27321;50.816;6.054;2022-11-15T03:31:14;12.60;82.80
41628;DHT22;27321;50.816;6.054;2022-11-15T03:35:14;12.60;82.90
41628;DHT22;27321;50.816;6.054;2022-11-15T03:38:36;12.50;82.90
41628;DHT22;27321;50.816;6.054;2022-11-15T03:45:49;12.60;83.20
41628;DHT22;27321;50.816;6.054;2022-11-15T03:49:17;12.60;83.20
41628;DHT22;27321;50.816;6.054;2022-11-15T03:52:41;12.60;83.20
41628;DHT22;27321;50.816;6.054;2022-11-15T03:56:04;12.60;83.20
41628;DHT22;27321;50.816;6.054;2022-11-15T03:59:23;12.60;83.00
41628;DHT22;27321;50.816;6.054;2022-11-15T04:02:43;12.60;82.90
41628;DHT22;27321;50.816;6.054;2022-11-15T04:06:04;12.60;82.80
41628;DHT22;27321;50.816;6.054;2022-11-15T04:09:24;12.60;82.90
41628;DHT22;27321;50.816;6.054;2022-11-15T04:12:45;12.60;82.80
41628;DHT22;27321;50.816;6.054;2022-11-15T04:16:07;12.60;82.80
41628;DHT22;27321;50.816;6.054;2022-11-15T04:19:26;12.60;82.60
41628;DHT22;27321;50.816;6.054;2022-11-15T04:23:14;12.60;82.70
41628;DHT22;27321;50.816;6.054;2022-11-15T04:26:54;12.60;82.60
41628;DHT22;27321;50.816;6.054;2022-11-15T04:30:14;12.70;82.40
41628;DHT22;27321;50.816;6.054;2022-11-15T04:33:34;12.70;82.60
41628;DHT22;27321;50.816;6.054;2022-11-15T04:36:54;12.60;82.60
41628;DHT22;27321;50.816;6.054;2022-11-15T04:40:32;12.70;82.60
41628;DHT22;27321;50.816;6.054;2022-11-15T04:43:55;12.70;82.80
41628;DHT22;27321;50.816;6.054;2022-11-15T04:47:14;12.60;82.80
41628;DHT22;27321;50.816;6.054;2022-11-15T04:50:34;12.60;82.90
41628;DHT22;27321;50.816;6.054;2022-11-15T04:53:54;12.60;82.90
41628;DHT22;27321;50.816;6.054;2022-11-15T04:57:14;12.60;82.60
41628;DHT22;27321;50.816;6.054;2022-11-15T05:00:34;12.70;82.30
41628;DHT22;27321;50.816;6.054;2022-11-15T05:03:54;12.70;82.20
41628;DHT22;27321;50.816;6.054;2022-11-15T05:07:32;12.80;82.10
41628;DHT22;27321;50.816;6.054;2022-11-15T05:10:52;12.70;81.90
41628;DHT22;27321;50.816;6.054;2022-11-15T05:14:12;12.70;81.90
41628;DHT22;27321;50.816;6.054;2022-11-15T05:17:32;12.60;81.60
41628;DHT22;27321;50.816;6.054;2022-11-15T05:20:52;12.60;81.70
41628;DHT22;27321;50.816;6.054;2022-11-15T05:24:12;12.50;81.40
41628;DHT22;27321;50.816;6.054;2022-11-15T05:27:32;12.50;81.20
41628;DHT22;27321;50.816;6.054;2022-11-15T05:30:52;12.50;80.90
41628;DHT22;27321;50.816;6.054;2022-11-15T05:34:12;12.50;81.00
41628;DHT22;27321;50.816;6.054;2022-11-15T05:37:33;12.50;80.80
41628;DHT22;27321;50.816;6.054;2022-11-15T05:40:52;12.50;80.70
41628;DHT22;27321;50.816;6.054;2022-11-15T05:44:15;12.50;80.60
41628;DHT22;27321;50.816;6.054;2022-11-15T05:47:38;12.50;80.40
41628;DHT22;27321;50.816;6.054;2022-11-15T05:50:58;12.50;80.40
41628;DHT22;27321;50.816;6.054;2022-11-15T05:54:20;12.50;80.50
41628;DHT22;27321;50.816;6.054;2022-11-15T05:57:40;12.40;80.50
41628;DHT22;27321;50.816;6.054;2022-11-15T06:01:00;12.40;80.80
41628;DHT22;27321;50.816;6.054;2022-11-15T06:04:20;12.30;81.40
41628;DHT22;27321;50.816;6.054;2022-11-15T06:07:40;12.30;82.30
41628;DHT22;27321;50.816;6.054;2022-11-15T06:11:07;12.30;83.00
41628;DHT22;27321;50.816;6.054;2022-11-15T06:14:27;12.30;83.30
41628;DHT22;27321;50.816;6.054;2022-11-15T06:17:46;12.20;83.60
41628;DHT22;27321;50.816;6.054;2022-11-15T06:21:06;12.20;83.80
41628;DHT22;27321;50.816;6.054;2022-11-15T06:24:26;12.10;83.90
41628;DHT22;27321;50.816;6.054;2022-11-15T06:27:51;12.20;83.60
41628;DHT22;27321;50.816;6.054;2022-11-15T06:31:12;12.20;83.40
41628;DHT22;27321;50.816;6.054;2022-11-15T06:34:31;12.10;83.50
41628;DHT22;27321;50.816;6.054;2022-11-15T06:37:51;12.10;83.00
41628;DHT22;27321;50.816;6.054;2022-11-15T06:41:12;12.10;82.80
41628;DHT22;27321;50.816;6.054;2022-11-15T06:44:32;12.10;82.30
41628;DHT22;27321;50.816;6.054;2022-11-15T06:47:52;12.00;82.00
41628;DHT22;27321;50.816;6.054;2022-11-15T06:51:14;12.00;82.10
41628;DHT22;27321;50.816;6.054;2022-11-15T06:54:37;12.00;81.40
41628;DHT22;27321;50.816;6.054;2022-11-15T06:57:56;12.00;81.90
41628;DHT22;27321;50.816;6.054;2022-11-15T07:01:16;12.00;81.80
41628;DHT22;27321;50.816;6.054;2022-11-15T07:04:36;12.00;81.40
41628;DHT22;27321;50.816;6.054;2022-11-15T07:07:56;12.00;81.60
41628;DHT22;27321;50.816;6.054;2022-11-15T07:11:16;12.10;81.50
41628;DHT22;27321;50.816;6.054;2022-11-15T07:14:36;12.10;81.30
41628;DHT22;27321;50.816;6.054;2022-11-15T07:17:56;12.10;81.20
41628;DHT22;27321;50.816;6.054;2022-11-15T07:21:19;12.10;81.30
41628;DHT22;27321;50.816;6.054;2022-11-15T07:24:39;12.10;81.30
41628;DHT22;27321;50.816;6.054;2022-11-15T07:28:00;12.10;81.20
41628;DHT22;27321;50.816;6.054;2022-11-15T07:31:20;12.10;81.10
41628;DHT22;27321;50.816;6.054;2022-11-15T07:34:39;12.10;81.10
41628;DHT22;27321;50.816;6.054;2022-11-15T07:38:01;12.10;80.80
41628;DHT22;27321;50.816;6.054;2022-11-15T07:41:21;12.20;80.40
41628;DHT22;27321;50.816;6.054;2022-11-15T07:44:41;12.20;80.40
41628;DHT22;27321;50.816;6.054;2022-11-15T07:48:01;12.20;79.80
41628;DHT22;27321;50.816;6.054;2022-11-15T07:51:21;12.10;78.70
41628;DHT22;27321;50.816;6.054;2022-11-15T07:54:40;11.90;78.60
41628;DHT22;27321;50.816;6.054;2022-11-15T07:58:02;11.90;78.70
41628;DHT22;27321;50.816;6.054;2022-11-15T08:01:26;11.90;78.50
41628;DHT22;27321;50.816;6.054;2022-11-15T08:04:45;12.00;78.80
41628;DHT22;27321;50.816;6.054;2022-11-15T08:08:06;12.10;78.50
41628;DHT22;27321;50.816;6.054;2022-11-15T08:11:27;12.00;78.10
41628;DHT22;27321;50.816;6.054;2022-11-15T08:14:47;12.00;78.20
41628;DHT22;27321;50.816;6.054;2022-11-15T08:18:10;12.10;78.30
41628;DHT22;27321;50.816;6.054;2022-11-15T08:21:31;12.10;78.10
41628;DHT22;27321;50.816;6.054;2022-11-15T08:24:51;12.10;77.80
41628;DHT22;27321;50.816;6.054;2022-11-15T08:28:11;12.00;77.70
41628;DHT22;27321;50.816;6.054;2022-11-15T08:31:30;12.00;77.10
41628;DHT22;27321;50.816;6.054;2022-11-15T08:34:50;12.00;77.40
41628;DHT22;27321;50.816;6.054;2022-11-15T08:38:10;12.10;76.80
41628;DHT22;27321;50.816;6.054;2022-11-15T08:41:34;12.00;76.70
41628;DHT22;27321;50.816;6.054;2022-11-15T08:44:55;12.10;76.20
41628;DHT22;27321;50.816;6.054;2022-11-15T08:48:15;11.90;75.80
41628;DHT22;27321;50.816;6.054;2022-11-15T08:51:35;12.00;76.10
41628;DHT22;27321;50.816;6.054;2022-11-15T08:54:55;12.00;76.10
41628;DHT22;27321;50.816;6.054;2022-11-15T08:58:14;12.00;75.40
41628;DHT22;27321;50.816;6.054;2022-11-15T09:01:34;12.00;75.20
41628;DHT22;27321;50.816;6.054;2022-11-15T09:04:54;12.00;75.30
41628;DHT22;27321;50.816;6.054;2022-11-15T09:08:14;12.00;75.30
41628;DHT22;27321;50.816;6.054;2022-11-15T09:11:33;12.10;75.10
41628;DHT22;27321;50.816;6.054;2022-11-15T09:14:53;12.10;74.50
41628;DHT22;27321;50.816;6.054;2022-11-15T09:18:13;12.10;73.90
41628;DHT22;27321;50.816;6.054;2022-11-15T09:21:32;12.20;74.20
41628;DHT22;27321;50.816;6.054;2022-11-15T09:24:52;12.20;73.50
41628;DHT22;27321;50.816;6.054;2022-11-15T09:28:12;12.30;73.70
41628;DHT22;27321;50.816;6.054;2022-11-15T09:31:32;12.30;73.30
41628;DHT22;27321;50.816;6.054;2022-11-15T09:34:51;12.40;73.10
41628;DHT22;27321;50.816;6.054;2022-11-15T09:38:11;12.40;71.90
41628;DHT22;27321;50.816;6.054;2022-11-15T09:45:30;12.40;71.10
41628;DHT22;27321;50.816;6.054;2022-11-15T09:48:55;12.40;70.50
41628;DHT22;27321;50.816;6.054;2022-11-15T09:52:03;12.50;69.40
41628;DHT22;27321;50.816;6.054;2022-11-15T09:55:05;12.50;68.80
41628;DHT22;27321;50.816;6.054;2022-11-15T09:58:14;12.50;68.20
41628;DHT22;27321;50.816;6.054;2022-11-15T10:04:42;12.50;68.30
41628;DHT22;27321;50.816;6.054;2022-11-15T10:07:59;12.50;66.50
41628;DHT22;27321;50.816;6.054;2022-11-15T10:11:10;12.50;65.50
41628;DHT22;27321;50.816;6.054;2022-11-15T10:14:30;12.50;66.10
41628;DHT22;27321;50.816;6.054;2022-11-15T10:17:52;12.50;65.20
41628;DHT22;27321;50.816;6.054;2022-11-15T10:21:00;12.60;64.90
41628;DHT22;27321;50.816;6.054;2022-11-15T10:24:19;12.60;64.80
41628;DHT22;27321;50.816;6.054;2022-11-15T10:27:23;12.60;63.70
41628;DHT22;27321;50.816;6.054;2022-11-15T10:30:38;12.70;64.00
41628;DHT22;27321;50.816;6.054;2022-11-15T10:33:43;12.80;63.70
41628;DHT22;27321;50.816;6.054;2022-11-15T10:36:45;12.90;63.90
41628;DHT22;27321;50.816;6.054;2022-11-15T10:40:15;13.00;62.70
41628;DHT22;27321;50.816;6.054;2022-11-15T10:43:23;13.10;62.80
41628;DHT22;27321;50.816;6.054;2022-11-15T10:46:26;13.20;62.60
41628;DHT22;27321;50.816;6.054;2022-11-15T10:49:29;13.40;62.30
41628;DHT22;27321;50.816;6.054;2022-11-15T10:52:34;13.50;62.20
41628;DHT22;27321;50.816;6.054;2022-11-15T10:55:36;13.60;62.20
41628;DHT22;27321;50.816;6.054;2022-11-15T10:58:42;13.60;61.10
41628;DHT22;27321;50.816;6.054;2022-11-15T11:01:46;13.70;61.40
41628;DHT22;27321;50.816;6.054;2022-11-15T11:04:51;13.80;61.30
41628;DHT22;27321;50.816;6.054;2022-11-15T11:08:08;13.80;59.40
41628;DHT22;27321;50.816;6.054;2022-11-15T11:11:21;13.90;59.60
41628;DHT22;27321;50.816;6.054;2022-11-15T11:14:25;13.80;58.30
41628;DHT22;27321;50.816;6.054;2022-11-15T11:21:08;13.80;59.60
41628;DHT22;27321;50.816;6.054;2022-11-15T11:24:56;13.90;58.20
41628;DHT22;27321;50.816;6.054;2022-11-15T11:31:56;14.10;59.50
41628;DHT22;27321;50.816;6.054;2022-11-15T11:38:33;14.20;58.90
41628;DHT22;27321;50.816;6.054;2022-11-15T11:41:55;14.20;58.80
41628;DHT22;27321;50.816;6.054;2022-11-15T11:45:18;14.20;58.70
41628;DHT22;27321;50.816;6.054;2022-11-15T11:48:55;14.20;59.30
41628;DHT22;27321;50.816;6.054;2022-11-15T11:53:04;14.30;59.80
41628;DHT22;27321;50.816;6.054;2022-11-15T11:55:45;14.30;59.70
41628;DHT22;27321;50.816;6.054;2022-11-15T11:58:51;14.40;60.60
41628;DHT22;27321;50.816;6.054;2022-11-15T12:01:54;14.40;61.00
41628;DHT22;27321;50.816;6.054;2022-11-15T12:05:04;14.50;61.30
41628;DHT22;27321;50.816;6.054;2022-11-15T12:12:17;14.60;61.60
41628;DHT22;27321;50.816;6.054;2022-11-15T12:18:16;14.70;62.90
41628;DHT22;27321;50.816;6.054;2022-11-15T12:25:04;14.70;62.40
41628;DHT22;27321;50.816;6.054;2022-11-15T12:34:45;14.60;62.80
41628;DHT22;27321;50.816;6.054;2022-11-15T12:37:51;14.60;63.00
41628;DHT22;27321;50.816;6.054;2022-11-15T12:41:16;14.70;63.40
41628;DHT22;27321;50.816;6.054;2022-11-15T12:47:31;14.70;63.50
41628;DHT22;27321;50.816;6.054;2022-11-15T12:53:54;14.80;63.70
41628;DHT22;27321;50.816;6.054;2022-11-15T13:00:50;14.80;63.40
41628;DHT22;27321;50.816;6.054;2022-11-15T13:03:32;14.80;62.90
41628;DHT22;27321;50.816;6.054;2022-11-15T13:06:56;14.70;62.80
41628;DHT22;27321;50.816;6.054;2022-11-15T13:09:59;14.70;62.90
41628;DHT22;27321;50.816;6.054;2022-11-15T13:13:02;14.70;62.90
41628;DHT22;27321;50.816;6.054;2022-11-15T13:16:06;14.60;62.90
41628;DHT22;27321;50.816;6.054;2022-11-15T13:19:10;14.70;63.10
41628;DHT22;27321;50.816;6.054;2022-11-15T13:22:14;14.70;63.20
41628;DHT22;27321;50.816;6.054;2022-11-15T13:29:19;14.80;63.30
41628;DHT22;27321;50.816;6.054;2022-11-15T13:32:21;14.80;63.10
41628;DHT22;27321;50.816;6.054;2022-11-15T13:35:54;14.90;62.50
41628;DHT22;27321;50.816;6.054;2022-11-15T13:39:03;14.80;61.70
41628;DHT22;27321;50.816;6.054;2022-11-15T13:42:14;14.80;62.00
41628;DHT22;27321;50.816;6.054;2022-11-15T13:45:19;14.80;62.10
41628;DHT22;27321;50.816;6.054;2022-11-15T13:48:21;14.80;61.80
41628;DHT22;27321;50.816;6.054;2022-11-15T13:54:55;14.70;62.00
41628;DHT22;27321;50.816;6.054;2022-11-15T13:58:04;14.70;61.90
41628;DHT22;27321;50.816;6.054;2022-11-15T14:01:11;14.70;62.60
41628;DHT22;27321;50.816;6.054;2022-11-15T14:04:20;14.70;62.90
41628;DHT22;27321;50.816;6.054;2022-11-15T14:07:28;14.70;62.80
41628;DHT22;27321;50.816;6.054;2022-11-15T14:10:31;14.70;62.80
41628;DHT22;27321;50.816;6.054;2022-11-15T14:17:20;14.60;61.90
41628;DHT22;27321;50.816;6.054;2022-11-15T14:20:43;14.60;62.00
41628;DHT22;27321;50.816;6.054;2022-11-15T14:23:44;14.60;62.20
41628;DHT22;27321;50.816;6.054;2022-11-15T14:26:48;14.60;62.20
41628;DHT22;27321;50.816;6.054;2022-11-15T14:29:56;14.60;61.50
41628;DHT22;27321;50.816;6.054;2022-11-15T14:34:01;14.60;62.10
41628;DHT22;27321;50.816;6.054;2022-11-15T14:41:25;14.60;62.20
41628;DHT22;27321;50.816;6.054;2022-11-15T14:45:21;14.60;62.10
41628;DHT22;27321;50.816;6.054;2022-11-15T14:48:23;14.60;62.10
41628;DHT22;27321;50.816;6.054;2022-11-15T14:51:25;14.60;62.20
41628;DHT22;27321;50.816;6.054;2022-11-15T14:54:26;14.50;62.20
41628;DHT22;27321;50.816;6.054;2022-11-15T14:57:28;14.50;62.20
41628;DHT22;27321;50.816;6.054;2022-11-15T15:00:30;14.50;62.40
41628;DHT22;27321;50.816;6.054;2022-11-15T15:03:32;14.50;62.80
41628;DHT22;27321;50.816;6.054;2022-11-15T15:06:33;14.50;62.90
41628;DHT22;27321;50.816;6.054;2022-11-15T15:09:34;14.50;63.10
41628;DHT22;27321;50.816;6.054;2022-11-15T15:12:35;14.50;63.10
41628;DHT22;27321;50.816;6.054;2022-11-15T15:15:39;14.50;63.20
41628;DHT22;27321;50.816;6.054;2022-11-15T15:18:43;14.50;63.30
41628;DHT22;27321;50.816;6.054;2022-11-15T15:21:44;14.50;63.50
41628;DHT22;27321;50.816;6.054;2022-11-15T15:24:46;14.50;63.50
41628;DHT22;27321;50.816;6.054;2022-11-15T15:27:50;14.50;63.70
41628;DHT22;27321;50.816;6.054;2022-11-15T15:30:51;14.50;63.80
41628;DHT22;27321;50.816;6.054;2022-11-15T15:33:53;14.50;63.60
41628;DHT22;27321;50.816;6.054;2022-11-15T15:37:25;14.50;64.10
41628;DHT22;27321;50.816;6.054;2022-11-15T15:40:29;14.50;64.00
41628;DHT22;27321;50.816;6.054;2022-11-15T15:43:31;14.40;64.00
41628;DHT22;27321;50.816;6.054;2022-11-15T15:46:33;14.40;64.00
41628;DHT22;27321;50.816;6.054;2022-11-15T15:49:34;14.40;63.80
41628;DHT22;27321;50.816;6.054;2022-11-15T15:52:35;14.40;64.00
41628;DHT22;27321;50.816;6.054;2022-11-15T15:55:37;14.40;63.50
41628;DHT22;27321;50.816;6.054;2022-11-15T15:58:38;14.30;63.80
41628;DHT22;27321;50.816;6.054;2022-11-15T16:01:39;14.30;64.20
41628;DHT22;27321;50.816;6.054;2022-11-15T16:04:40;14.30;64.50
41628;DHT22;27321;50.816;6.054;2022-11-15T16:07:41;14.30;65.00
41628;DHT22;27321;50.816;6.054;2022-11-15T16:10:43;14.30;65.60
41628;DHT22;27321;50.816;6.054;2022-11-15T16:13:44;14.30;66.10
41628;DHT22;27321;50.816;6.054;2022-11-15T16:16:45;14.30;66.90
41628;DHT22;27321;50.816;6.054;2022-11-15T16:19:46;14.30;67.40
41628;DHT22;27321;50.816;6.054;2022-11-15T16:22:47;14.20;68.40
41628;DHT22;27321;50.816;6.054;2022-11-15T16:25:50;14.20;69.20
41628;DHT22;27321;50.816;6.054;2022-11-15T16:28:52;14.20;70.00
41628;DHT22;27321;50.816;6.054;2022-11-15T16:31:54;14.20;70.40
41628;DHT22;27321;50.816;6.054;2022-11-15T16:34:55;14.20;70.90
41628;DHT22;27321;50.816;6.054;2022-11-15T16:44:59;14.20;72.50
41628;DHT22;27321;50.816;6.054;2022-11-15T16:48:01;14.10;72.90
41628;DHT22;27321;50.816;6.054;2022-11-15T16:51:02;14.10;73.30
41628;DHT22;27321;50.816;6.054;2022-11-15T16:54:04;14.10;73.40
41628;DHT22;27321;50.816;6.054;2022-11-15T16:57:05;14.10;73.70
41628;DHT22;27321;50.816;6.054;2022-11-15T17:00:11;14.10;74.00
41628;DHT22;27321;50.816;6.054;2022-11-15T17:03:13;14.10;74.00
41628;DHT22;27321;50.816;6.054;2022-11-15T17:06:14;14.10;74.20
41628;DHT22;27321;50.816;6.054;2022-11-15T17:09:19;14.10;74.50
41628;DHT22;27321;50.816;6.054;2022-11-15T17:12:24;14.10;74.80
41628;DHT22;27321;50.816;6.054;2022-11-15T17:15:25;14.10;75.00
41628;DHT22;27321;50.816;6.054;2022-11-15T17:18:26;14.10;75.70
41628;DHT22;27321;50.816;6.054;2022-11-15T17:21:27;14.00;75.90
41628;DHT22;27321;50.816;6.054;2022-11-15T17:24:28;14.00;76.20
41628;DHT22;27321;50.816;6.054;2022-11-15T17:27:30;14.00;76.30
41628;DHT22;27321;50.816;6.054;2022-11-15T17:30:31;14.10;76.50
41628;DHT22;27321;50.816;6.054;2022-11-15T17:33:32;14.10;76.80
41628;DHT22;27321;50.816;6.054;2022-11-15T17:36:34;14.10;76.70
41628;DHT22;27321;50.816;6.054;2022-11-15T17:39:35;14.00;76.70
41628;DHT22;27321;50.816;6.054;2022-11-15T17:42:36;14.00;76.90
41628;DHT22;27321;50.816;6.054;2022-11-15T17:45:40;14.10;77.10
41628;DHT22;27321;50.816;6.054;2022-11-15T17:48:42;14.10;77.10
41628;DHT22;27321;50.816;6.054;2022-11-15T17:51:44;14.10;77.10
41628;DHT22;27321;50.816;6.054;2022-11-15T17:54:45;14.00;77.30
41628;DHT22;27321;50.816;6.054;2022-11-15T17:57:46;14.00;77.30
41628;DHT22;27321;50.816;6.054;2022-11-15T18:00:47;14.00;77.40
41628;DHT22;27321;50.816;6.054;2022-11-15T18:03:49;14.00;77.50
41628;DHT22;27321;50.816;6.054;2022-11-15T18:06:50;14.00;77.50
41628;DHT22;27321;50.816;6.054;2022-11-15T18:09:51;13.90;77.60
41628;DHT22;27321;50.816;6.054;2022-11-15T18:12:53;14.00;77.40
41628;DHT22;27321;50.816;6.054;2022-11-15T18:15:54;14.00;77.60
41628;DHT22;27321;50.816;6.054;2022-11-15T18:18:56;14.00;77.50
41628;DHT22;27321;50.816;6.054;2022-11-15T18:22:01;14.00;77.60
41628;DHT22;27321;50.816;6.054;2022-11-15T18:25:04;14.00;77.60
41628;DHT22;27321;50.816;6.054;2022-11-15T18:28:05;14.00;77.60
41628;DHT22;27321;50.816;6.054;2022-11-15T18:31:18;14.00;77.60
41628;DHT22;27321;50.816;6.054;2022-11-15T18:34:26;14.00;77.40
41628;DHT22;27321;50.816;6.054;2022-11-15T18:37:39;14.00;77.40
41628;DHT22;27321;50.816;6.054;2022-11-15T18:40:40;14.00;77.40
41628;DHT22;27321;50.816;6.054;2022-11-15T18:43:41;14.00;77.30
41628;DHT22;27321;50.816;6.054;2022-11-15T18:46:43;14.00;77.40
41628;DHT22;27321;50.816;6.054;2022-11-15T18:49:46;14.00;77.50
41628;DHT22;27321;50.816;6.054;2022-11-15T18:52:47;14.10;77.50
41628;DHT22;27321;50.816;6.054;2022-11-15T18:55:48;14.10;77.30
41628;DHT22;27321;50.816;6.054;2022-11-15T18:58:52;14.10;77.50
41628;DHT22;27321;50.816;6.054;2022-11-15T19:01:54;14.10;77.60
41628;DHT22;27321;50.816;6.054;2022-11-15T19:04:56;14.10;77.70
41628;DHT22;27321;50.816;6.054;2022-11-15T19:07:57;14.10;77.70
41628;DHT22;27321;50.816;6.054;2022-11-15T19:11:02;14.00;77.80
41628;DHT22;27321;50.816;6.054;2022-11-15T19:14:07;14.00;77.80
41628;DHT22;27321;50.816;6.054;2022-11-15T19:17:11;14.10;77.90
41628;DHT22;27321;50.816;6.054;2022-11-15T19:20:12;14.10;77.80
41628;DHT22;27321;50.816;6.054;2022-11-15T19:23:13;14.10;78.00
41628;DHT22;27321;50.816;6.054;2022-11-15T19:26:15;14.00;78.00
41628;DHT22;27321;50.816;6.054;2022-11-15T19:29:16;14.00;78.10
41628;DHT22;27321;50.816;6.054;2022-11-15T19:32:18;14.00;78.10
41628;DHT22;27321;50.816;6.054;2022-11-15T19:35:18;14.00;78.10
41628;DHT22;27321;50.816;6.054;2022-11-15T19:38:19;14.00;78.10
41628;DHT22;27321;50.816;6.054;2022-11-15T19:41:23;14.00;78.00
41628;DHT22;27321;50.816;6.054;2022-11-15T19:44:28;14.00;77.90
41628;DHT22;27321;50.816;6.054;2022-11-15T19:47:29;14.00;78.00
41628;DHT22;27321;50.816;6.054;2022-11-15T19:50:30;14.10;78.10
41628;DHT22;27321;50.816;6.054;2022-11-15T19:53:32;14.00;78.10
41628;DHT22;27321;50.816;6.054;2022-11-15T19:56:36;14.00;78.30
41628;DHT22;27321;50.816;6.054;2022-11-15T19:59:40;14.00;78.40
41628;DHT22;27321;50.816;6.054;2022-11-15T20:02:41;14.10;78.40
41628;DHT22;27321;50.816;6.054;2022-11-15T20:05:46;14.10;78.50
41628;DHT22;27321;50.816;6.054;2022-11-15T20:08:54;14.10;78.50
41628;DHT22;27321;50.816;6.054;2022-11-15T20:12:04;14.10;78.30
41628;DHT22;27321;50.816;6.054;2022-11-15T20:15:05;14.10;78.60
41628;DHT22;27321;50.816;6.054;2022-11-15T20:18:07;14.10;78.40
41628;DHT22;27321;50.816;6.054;2022-11-15T20:21:09;14.10;78.40
41628;DHT22;27321;50.816;6.054;2022-11-15T20:24:10;14.10;78.50
41628;DHT22;27321;50.816;6.054;2022-11-15T20:27:11;14.10;78.40
41628;DHT22;27321;50.816;6.054;2022-11-15T20:30:12;14.10;78.50
41628;DHT22;27321;50.816;6.054;2022-11-15T20:33:13;14.00;78.60
41628;DHT22;27321;50.816;6.054;2022-11-15T20:36:14;14.10;78.50
41628;DHT22;27321;50.816;6.054;2022-11-15T20:39:15;14.10;78.50
41628;DHT22;27321;50.816;6.054;2022-11-15T20:42:16;14.10;78.50
41628;DHT22;27321;50.816;6.054;2022-11-15T20:45:17;14.10;78.50
41628;DHT22;27321;50.816;6.054;2022-11-15T20:48:18;14.10;78.50
41628;DHT22;27321;50.816;6.054;2022-11-15T20:51:19;14.10;78.50
41628;DHT22;27321;50.816;6.054;2022-11-15T20:54:20;14.10;78.40
41628;DHT22;27321;50.816;6.054;2022-11-15T20:57:21;14.10;78.40
41628;DHT22;27321;50.816;6.054;2022-11-15T21:00:22;14.10;78.40
41628;DHT22;27321;50.816;6.054;2022-11-15T21:03:25;14.10;78.30
41628;DHT22;27321;50.816;6.054;2022-11-15T21:06:26;14.10;78.40
41628;DHT22;27321;50.816;6.054;2022-11-15T21:09:27;14.10;78.50
41628;DHT22;27321;50.816;6.054;2022-11-15T21:12:47;14.10;78.50
41628;DHT22;27321;50.816;6.054;2022-11-15T21:15:48;14.10;78.60
41628;DHT22;27321;50.816;6.054;2022-11-15T21:18:49;14.10;78.70
41628;DHT22;27321;50.816;6.054;2022-11-15T21:21:50;14.10;78.70
41628;DHT22;27321;50.816;6.054;2022-11-15T21:24:51;14.10;78.60
41628;DHT22;27321;50.816;6.054;2022-11-15T21:27:51;14.10;78.60
41628;DHT22;27321;50.816;6.054;2022-11-15T21:30:55;14.10;78.60
41628;DHT22;27321;50.816;6.054;2022-11-15T21:34:00;14.10;78.60
41628;DHT22;27321;50.816;6.054;2022-11-15T21:37:03;14.10;78.60
41628;DHT22;27321;50.816;6.054;2022-11-15T21:40:05;14.10;78.60
41628;DHT22;27321;50.816;6.054;2022-11-15T21:43:06;14.10;78.60
41628;DHT22;27321;50.816;6.054;2022-11-15T21:46:08;14.10;78.70
41628;DHT22;27321;50.816;6.054;2022-11-15T21:49:09;14.10;78.60
41628;DHT22;27321;50.816;6.054;2022-11-15T21:52:10;14.10;78.50
41628;DHT22;27321;50.816;6.054;2022-11-15T21:55:11;14.10;78.40
41628;DHT22;27321;50.816;6.054;2022-11-15T21:58:12;14.10;78.60
41628;DHT22;27321;50.816;6.054;2022-11-15T22:01:13;14.10;78.50
41628;DHT22;27321;50.816;6.054;2022-11-15T22:04:33;14.10;78.70
41628;DHT22;27321;50.816;6.054;2022-11-15T22:07:33;14.10;78.70
41628;DHT22;27321;50.816;6.054;2022-11-15T22:10:34;14.10;78.80
41628;DHT22;27321;50.816;6.054;2022-11-15T22:13:35;14.10;79.00
41628;DHT22;27321;50.816;6.054;2022-11-15T22:16:37;14.10;78.90
41628;DHT22;27321;50.816;6.054;2022-11-15T22:19:38;14.10;78.90
41628;DHT22;27321;50.816;6.054;2022-11-15T22:22:40;14.10;79.10
41628;DHT22;27321;50.816;6.054;2022-11-15T22:25:42;14.10;79.30